Time;durP1;ratioP1;P1;durP2;ratioP2;P2;SDS_P1;SDS_P2;PMS_P1;PMS_P2;Temp;Humidity;BMP_temperature;BMP_pressure;BME280_temperature;BME280_humidity;BME280_pressure;Samples;Min_cycle;Max_cycle;Signal;HPM_P1;HPM_P2
2021/12/03 00:00:45;;;;;;;;;;;1.10;88.80;;;;;;5115427;27;20316;-75
2021/12/03 00:03:13;;;;;;;;;;;1.10;88.90;;;;;;5112815;28;19930;-75
2021/12/03 00:05:41;;;;;;;;;;;1.10;89.00;;;;;;5125051;27;19924;-75
2021/12/03 00:08:08;;;;;;;;;;;1.00;89.20;;;;;;5135089;27;20327;-75
2021/12/03 00:10:37;;;;;;;;;;;1.00;89.20;;;;;;5134005;27;20291;-75
2021/12/03 00:13:06;;;;;;;;;;;1.00;89.60;;;;;;5131077;27;20308;-75
2021/12/03 00:15:34;;;;;;;;;;;1.00;89.70;;;;;;5114561;28;20372;-75
2021/12/03 00:18:02;;;;;;;;;;;1.10;89.80;;;;;;5096441;28;19924;-74
2021/12/03 00:20:34;;;;;;;;;;;1.10;89.80;;;;;;5113003;28;19923;-76
2021/12/03 00:23:03;;;;;;;;;;;1.00;90.10;;;;;;5113362;28;19928;-76
2021/12/03 00:25:31;;;;;;;;;;;1.10;90.10;;;;;;5114367;28;19976;-76
2021/12/03 00:27:59;;;;;;;;;;;1.10;90.40;;;;;;5113764;28;20376;-76
2021/12/03 00:30:32;;;;;;;;;;;1.10;90.40;;;;;;5113905;28;20293;-76
2021/12/03 00:33:00;;;;;;;;;;;1.10;90.50;;;;;;5112911;28;19923;-75
2021/12/03 00:35:28;;;;;;;;;;;1.10;90.60;;;;;;5114097;28;19927;-75
2021/12/03 00:37:56;;;;;;;;;;;1.20;90.50;;;;;;5113944;28;19924;-75
2021/12/03 00:40:25;;;;;;;;;;;1.20;90.80;;;;;;5117895;27;19966;-75
2021/12/03 00:42:52;;;;;;;;;;;1.20;90.90;;;;;;5125115;27;20410;-75
2021/12/03 00:45:21;;;;;;;;;;;1.20;91.10;;;;;;5134512;27;19930;-75
2021/12/03 00:47:48;;;;;;;;;;;1.30;91.10;;;;;;5134076;27;19928;-75
2021/12/03 00:50:17;;;;;;;;;;;1.30;91.10;;;;;;5134577;27;19928;-75
2021/12/03 00:52:45;;;;;;;;;;;1.30;91.10;;;;;;5116142;27;19930;-76
2021/12/03 00:55:13;;;;;;;;;;;1.30;91.10;;;;;;5098756;27;19923;-75
2021/12/03 00:57:40;;;;;;;;;;;1.30;91.10;;;;;;5132573;27;20303;-75
2021/12/03 01:00:14;;;;;;;;;;;1.30;91.10;;;;;;5134253;27;19933;-76
2021/12/03 01:02:41;;;;;;;;;;;1.40;91.20;;;;;;5132811;27;20463;-76
2021/12/03 01:05:09;;;;;;;;;;;1.40;91.20;;;;;;5133756;27;20312;-75
2021/12/03 01:07:37;;;;;;;;;;;1.40;91.30;;;;;;5133238;27;19924;-75
2021/12/03 01:10:05;;;;;;;;;;;1.50;91.40;;;;;;5133813;27;20292;-75
2021/12/03 01:12:33;;;;;;;;;;;1.50;91.40;;;;;;5133747;27;20307;-75
2021/12/03 01:15:01;;;;;;;;;;;1.50;91.40;;;;;;5133695;27;19924;-75
2021/12/03 01:17:28;;;;;;;;;;;1.50;91.40;;;;;;5132567;27;20413;-75
2021/12/03 01:19:55;;;;;;;;;;;1.60;91.60;;;;;;5133133;27;20407;-75
2021/12/03 01:22:23;;;;;;;;;;;1.60;91.60;;;;;;5132502;27;19946;-75
2021/12/03 01:24:50;;;;;;;;;;;1.60;91.60;;;;;;5132282;27;19930;-75
2021/12/03 01:27:17;;;;;;;;;;;1.60;91.70;;;;;;5133435;27;19923;-74
2021/12/03 01:29:45;;;;;;;;;;;1.70;91.70;;;;;;5131992;27;19949;-74
2021/12/03 01:32:12;;;;;;;;;;;1.70;91.80;;;;;;5133059;27;19928;-75
2021/12/03 01:34:39;;;;;;;;;;;1.70;91.90;;;;;;5131961;27;20407;-74
2021/12/03 01:37:07;;;;;;;;;;;1.70;91.90;;;;;;5133228;27;19946;-74
2021/12/03 01:39:34;;;;;;;;;;;1.70;92.00;;;;;;5133060;27;20296;-74
2021/12/03 01:42:02;;;;;;;;;;;1.70;92.00;;;;;;5131798;27;19931;-73
2021/12/03 01:44:29;;;;;;;;;;;1.70;92.10;;;;;;5132674;27;19927;-74
2021/12/03 01:47:00;;;;;;;;;;;1.70;92.10;;;;;;5133334;27;20395;-74
2021/12/03 01:49:28;;;;;;;;;;;1.80;92.10;;;;;;5132985;27;19923;-74
2021/12/03 01:51:55;;;;;;;;;;;1.80;92.10;;;;;;5126797;27;19934;-74
2021/12/03 01:54:22;;;;;;;;;;;1.80;92.10;;;;;;5120102;27;19924;-74
2021/12/03 01:56:50;;;;;;;;;;;1.70;92.20;;;;;;5114182;27;19924;-74
2021/12/03 01:59:17;;;;;;;;;;;1.80;92.20;;;;;;5132588;27;19930;-74
2021/12/03 02:01:45;;;;;;;;;;;1.80;92.20;;;;;;5132337;27;20380;-74
2021/12/03 02:04:12;;;;;;;;;;;1.80;92.30;;;;;;5130956;27;19924;-73
2021/12/03 02:06:40;;;;;;;;;;;1.80;92.40;;;;;;5132406;27;20403;-74
2021/12/03 02:09:08;;;;;;;;;;;1.80;92.40;;;;;;5131794;27;20001;-74
2021/12/03 02:11:35;;;;;;;;;;;1.80;92.40;;;;;;5132728;27;19924;-73
2021/12/03 02:14:02;;;;;;;;;;;1.80;92.50;;;;;;5130484;28;20295;-73
2021/12/03 02:16:30;;;;;;;;;;;1.80;92.60;;;;;;5131417;28;19923;-73
2021/12/03 02:18:57;;;;;;;;;;;1.80;92.60;;;;;;5132648;28;19923;-73
2021/12/03 02:21:25;;;;;;;;;;;1.80;92.60;;;;;;5131006;28;19924;-73
2021/12/03 02:23:52;;;;;;;;;;;1.80;92.60;;;;;;5132754;28;20289;-74
2021/12/03 02:26:22;;;;;;;;;;;1.80;92.70;;;;;;5131346;28;19923;-74
2021/12/03 02:28:51;;;;;;;;;;;1.80;92.70;;;;;;5132129;27;19935;-73
2021/12/03 02:31:21;;;;;;;;;;;1.80;92.70;;;;;;5114293;28;20340;-73
2021/12/03 02:33:49;;;;;;;;;;;1.80;92.70;;;;;;5132495;28;20281;-73
2021/12/03 02:36:17;;;;;;;;;;;1.80;92.70;;;;;;5132298;27;20521;-73
2021/12/03 02:38:45;;;;;;;;;;;1.80;92.70;;;;;;5132589;28;19931;-73
2021/12/03 02:41:12;;;;;;;;;;;1.80;92.80;;;;;;5132551;28;19928;-73
2021/12/03 02:43:40;;;;;;;;;;;1.80;92.70;;;;;;5132343;28;19930;-73
2021/12/03 02:46:07;;;;;;;;;;;1.80;92.80;;;;;;5130932;28;20407;-73
2021/12/03 02:48:36;;;;;;;;;;;1.80;92.80;;;;;;5130830;28;19923;-73
2021/12/03 02:51:04;;;;;;;;;;;1.90;92.80;;;;;;5113826;28;19927;-73
2021/12/03 02:53:31;;;;;;;;;;;1.90;92.80;;;;;;5153099;27;20170;-73
2021/12/03 02:55:59;;;;;;;;;;;1.90;92.80;;;;;;5152226;27;19934;-73
2021/12/03 02:58:27;;;;;;;;;;;1.90;92.80;;;;;;5122347;28;20384;-73
2021/12/03 03:00:55;;;;;;;;;;;1.90;92.80;;;;;;5151378;27;19923;-73
2021/12/03 03:03:23;;;;;;;;;;;2.00;92.80;;;;;;5152345;27;19930;-73
2021/12/03 03:05:58;;;;;;;;;;;1.90;92.90;;;;;;5152783;27;19946;-74
2021/12/03 03:08:26;;;;;;;;;;;2.00;92.90;;;;;;5152592;27;19923;-73
2021/12/03 03:10:54;;;;;;;;;;;2.00;92.90;;;;;;5150918;27;19930;-74
2021/12/03 03:13:21;;;;;;;;;;;2.00;92.90;;;;;;5113780;28;19924;-73
2021/12/03 03:15:49;;;;;;;;;;;2.00;93.00;;;;;;5131490;28;19930;-73
2021/12/03 03:18:18;;;;;;;;;;;2.00;93.00;;;;;;5131882;28;19934;-74
2021/12/03 03:20:47;;;;;;;;;;;2.00;93.00;;;;;;5135021;27;20373;-72
2021/12/03 03:23:15;;;;;;;;;;;2.00;93.00;;;;;;5135092;27;20384;-74
2021/12/03 03:25:43;;;;;;;;;;;2.10;93.00;;;;;;5117274;27;20344;-74
2021/12/03 03:28:11;;;;;;;;;;;2.10;93.00;;;;;;5116824;27;19935;-73
2021/12/03 03:30:39;;;;;;;;;;;2.10;93.00;;;;;;5135064;27;20278;-73
2021/12/03 03:33:07;;;;;;;;;;;2.10;93.00;;;;;;5117004;27;20407;-73
2021/12/03 03:35:34;;;;;;;;;;;2.10;93.00;;;;;;5117132;27;19924;-73
2021/12/03 03:38:02;;;;;;;;;;;2.20;93.10;;;;;;5134194;27;20410;-73
2021/12/03 03:40:30;;;;;;;;;;;2.20;93.10;;;;;;5135405;27;20295;-73
2021/12/03 03:42:58;;;;;;;;;;;2.10;93.10;;;;;;5116854;27;19931;-74
2021/12/03 03:45:26;;;;;;;;;;;2.20;93.10;;;;;;5135297;27;19938;-73
2021/12/03 03:47:54;;;;;;;;;;;2.10;93.10;;;;;;5116891;27;19931;-73
2021/12/03 03:50:21;;;;;;;;;;;2.20;93.20;;;;;;5116818;27;20410;-74
2021/12/03 03:52:50;;;;;;;;;;;2.20;93.20;;;;;;5116799;27;19923;-74
2021/12/03 03:55:18;;;;;;;;;;;2.20;93.20;;;;;;5135198;27;19923;-74
2021/12/03 03:57:46;;;;;;;;;;;2.20;93.20;;;;;;5134394;27;19931;-74
2021/12/03 04:00:15;;;;;;;;;;;2.30;93.20;;;;;;5116325;27;19924;-74
2021/12/03 04:02:43;;;;;;;;;;;2.30;93.20;;;;;;5134962;27;20299;-74
2021/12/03 04:05:11;;;;;;;;;;;2.30;93.20;;;;;;5134103;27;19923;-74
2021/12/03 04:07:39;;;;;;;;;;;2.30;93.20;;;;;;5116499;27;19924;-74
2021/12/03 04:10:07;;;;;;;;;;;2.30;93.20;;;;;;5147143;27;19938;-74
2021/12/03 04:12:35;;;;;;;;;;;2.30;93.20;;;;;;5116123;27;19923;-75
2021/12/03 04:15:04;;;;;;;;;;;2.30;93.20;;;;;;5134924;27;19923;-74
2021/12/03 04:17:31;;;;;;;;;;;2.30;93.20;;;;;;5135032;27;19928;-74
2021/12/03 04:19:58;;;;;;;;;;;2.40;93.20;;;;;;5134008;27;19923;-74
2021/12/03 04:22:26;;;;;;;;;;;2.30;93.20;;;;;;5134517;27;19931;-74
2021/12/03 04:24:55;;;;;;;;;;;2.30;93.20;;;;;;5134263;27;20368;-74
2021/12/03 04:27:28;;;;;;;;;;;2.40;93.20;;;;;;5115979;27;19933;-74
2021/12/03 04:29:56;;;;;;;;;;;2.40;93.30;;;;;;5116157;27;19924;-74
2021/12/03 04:32:26;;;;;;;;;;;2.40;93.30;;;;;;5133469;27;20403;-74
2021/12/03 04:34:53;;;;;;;;;;;2.40;93.30;;;;;;5115665;27;19923;-74
2021/12/03 04:37:21;;;;;;;;;;;2.40;93.30;;;;;;5115710;27;20289;-74
2021/12/03 04:39:54;;;;;;;;;;;2.50;93.30;;;;;;5136543;27;19953;-74
2021/12/03 04:42:23;;;;;;;;;;;2.50;93.30;;;;;;5137494;27;20273;-74
2021/12/03 04:44:50;;;;;;;;;;;2.50;93.40;;;;;;5154760;27;20559;-74
2021/12/03 04:47:18;;;;;;;;;;;2.50;93.40;;;;;;5154093;27;19930;-74
2021/12/03 04:49:45;;;;;;;;;;;2.50;93.40;;;;;;5154741;27;19946;-74
2021/12/03 04:52:13;;;;;;;;;;;2.50;93.40;;;;;;5154461;27;19927;-75
2021/12/03 04:54:42;;;;;;;;;;;2.50;93.50;;;;;;5139475;27;20136;-74
2021/12/03 04:57:09;;;;;;;;;;;2.50;93.50;;;;;;5134111;27;19954;-74
2021/12/03 04:59:37;;;;;;;;;;;2.60;93.60;;;;;;5133661;27;20303;-75
2021/12/03 05:02:04;;;;;;;;;;;2.60;93.60;;;;;;5134036;27;19924;-75
2021/12/03 05:04:37;;;;;;;;;;;2.60;93.60;;;;;;5133618;27;19924;-75
2021/12/03 05:07:26;;;;;;;;;;;2.60;93.60;;;;;;5115359;27;19928;-75
2021/12/03 05:09:52;;;;;;;;;;;2.70;93.60;;;;;;5115197;27;19924;-75
2021/12/03 05:12:20;;;;;;;;;;;2.70;93.70;;;;;;5133386;27;19923;-75
2021/12/03 05:14:47;;;;;;;;;;;2.70;93.70;;;;;;5133454;27;19930;-75
2021/12/03 05:17:15;;;;;;;;;;;2.70;93.70;;;;;;5132790;27;19923;-75
2021/12/03 05:19:42;;;;;;;;;;;2.70;93.70;;;;;;5135815;27;19927;-75
2021/12/03 05:22:10;;;;;;;;;;;2.80;93.70;;;;;;5154497;27;19927;-75
2021/12/03 05:24:38;;;;;;;;;;;2.80;93.70;;;;;;5135615;27;19927;-75
2021/12/03 05:27:05;;;;;;;;;;;2.80;93.80;;;;;;5135405;27;19930;-75
2021/12/03 05:29:32;;;;;;;;;;;2.80;93.80;;;;;;5154164;27;19931;-75
2021/12/03 05:32:00;;;;;;;;;;;2.80;93.80;;;;;;5135379;27;19938;-75
2021/12/03 05:34:28;;;;;;;;;;;2.90;93.80;;;;;;5152879;27;19923;-75
2021/12/03 05:36:55;;;;;;;;;;;2.90;93.80;;;;;;5153822;27;19988;-75
2021/12/03 05:39:23;;;;;;;;;;;2.90;93.80;;;;;;5135137;27;20379;-75
2021/12/03 05:41:50;;;;;;;;;;;2.90;93.80;;;;;;5121699;27;19928;-76
2021/12/03 05:44:18;;;;;;;;;;;3.00;93.90;;;;;;5132538;27;19930;-76
2021/12/03 05:46:45;;;;;;;;;;;3.00;93.80;;;;;;5114619;27;20395;-76
2021/12/03 05:49:13;;;;;;;;;;;3.00;93.90;;;;;;5114594;27;19928;-76
2021/12/03 05:51:40;;;;;;;;;;;3.10;93.90;;;;;;5114478;27;19924;-76
2021/12/03 05:54:09;;;;;;;;;;;3.10;93.80;;;;;;5143644;27;20367;-75
2021/12/03 05:56:36;;;;;;;;;;;3.20;93.90;;;;;;5134560;27;19923;-76
2021/12/03 05:59:03;;;;;;;;;;;3.20;93.90;;;;;;5127339;27;19930;-76
2021/12/03 06:01:31;;;;;;;;;;;3.20;93.90;;;;;;5120250;27;19923;-75
2021/12/03 06:03:58;;;;;;;;;;;3.30;93.90;;;;;;5153377;27;19930;-75
2021/12/03 06:06:26;;;;;;;;;;;3.20;93.90;;;;;;5153730;27;19930;-75
2021/12/03 06:08:53;;;;;;;;;;;3.30;93.90;;;;;;5153432;27;19941;-75
2021/12/03 06:11:20;;;;;;;;;;;3.30;93.90;;;;;;5154031;27;19923;-74
2021/12/03 06:13:48;;;;;;;;;;;3.30;93.90;;;;;;5134861;27;19930;-74
2021/12/03 06:16:15;;;;;;;;;;;3.30;94.00;;;;;;5153111;27;19927;-74
2021/12/03 06:18:43;;;;;;;;;;;3.40;94.00;;;;;;5151969;27;20307;-74
2021/12/03 06:21:11;;;;;;;;;;;3.50;94.10;;;;;;5152925;27;19923;-74
2021/12/03 06:23:39;;;;;;;;;;;3.50;94.10;;;;;;5129715;27;19947;-76
2021/12/03 06:26:07;;;;;;;;;;;3.60;94.10;;;;;;5120157;28;19942;-75
2021/12/03 06:28:35;;;;;;;;;;;3.70;94.10;;;;;;5131219;28;19931;-75
2021/12/03 06:31:03;;;;;;;;;;;3.70;94.10;;;;;;5132815;27;19927;-75
2021/12/03 06:33:31;;;;;;;;;;;3.80;94.20;;;;;;5132449;28;19923;-75
2021/12/03 06:35:58;;;;;;;;;;;3.80;94.20;;;;;;5097329;28;19935;-74
2021/12/03 06:38:26;;;;;;;;;;;3.80;94.20;;;;;;5132588;28;20319;-74
2021/12/03 06:40:54;;;;;;;;;;;3.90;94.20;;;;;;5132582;28;19923;-74
2021/12/03 06:43:21;;;;;;;;;;;3.90;94.20;;;;;;5132444;28;19923;-74
2021/12/03 06:45:49;;;;;;;;;;;4.00;94.20;;;;;;5132241;28;19927;-75
2021/12/03 06:48:16;;;;;;;;;;;4.00;94.20;;;;;;5132387;28;19923;-75
2021/12/03 06:50:45;;;;;;;;;;;4.10;94.30;;;;;;5113813;28;20399;-79
2021/12/03 06:53:15;;;;;;;;;;;4.10;94.30;;;;;;5131341;28;19931;-78
2021/12/03 06:55:47;;;;;;;;;;;4.20;94.30;;;;;;5135335;27;20135;-75
2021/12/03 06:58:16;;;;;;;;;;;4.20;94.30;;;;;;5123374;27;19924;-75
2021/12/03 07:00:45;;;;;;;;;;;4.20;94.30;;;;;;5149528;27;19924;-75
2021/12/03 07:03:13;;;;;;;;;;;4.30;94.30;;;;;;5136327;27;19927;-76
2021/12/03 07:05:40;;;;;;;;;;;4.30;94.30;;;;;;5135959;27;19934;-76
2021/12/03 07:08:08;;;;;;;;;;;4.30;94.30;;;;;;5154663;27;19923;-75
2021/12/03 07:10:35;;;;;;;;;;;4.40;94.40;;;;;;5137896;27;19935;-76
2021/12/03 07:13:03;;;;;;;;;;;4.50;94.40;;;;;;5150916;27;20146;-76
2021/12/03 07:15:30;;;;;;;;;;;4.60;94.40;;;;;;5151959;27;19923;-76
2021/12/03 07:17:58;;;;;;;;;;;4.60;94.40;;;;;;5137025;27;19923;-75
2021/12/03 07:20:26;;;;;;;;;;;4.70;94.40;;;;;;5122387;27;20375;-79
2021/12/03 07:22:54;;;;;;;;;;;4.80;94.40;;;;;;5151470;27;19927;-75
2021/12/03 07:25:21;;;;;;;;;;;4.80;94.40;;;;;;5128450;27;19923;-76
2021/12/03 07:27:49;;;;;;;;;;;4.80;94.40;;;;;;5156128;27;19949;-76
2021/12/03 07:30:17;;;;;;;;;;;4.80;94.30;;;;;;5131319;27;19927;-76
2021/12/03 07:32:45;;;;;;;;;;;4.80;94.20;;;;;;5132901;27;19923;-76
2021/12/03 07:35:13;;;;;;;;;;;4.80;94.20;;;;;;5120857;27;19930;-75
2021/12/03 07:37:43;;;;;;;;;;;4.80;94.20;;;;;;5137505;27;19927;-75
2021/12/03 07:40:11;;;;;;;;;;;4.80;94.20;;;;;;5129836;27;19923;-75
2021/12/03 07:42:38;;;;;;;;;;;4.80;94.20;;;;;;5136654;27;19946;-76
2021/12/03 07:45:08;;;;;;;;;;;4.80;94.20;;;;;;5124977;27;19930;-75
2021/12/03 07:47:36;;;;;;;;;;;4.80;94.30;;;;;;5144876;27;20379;-75
2021/12/03 07:50:05;;;;;;;;;;;4.90;94.30;;;;;;5151990;27;20388;-75
2021/12/03 07:52:34;;;;;;;;;;;4.90;94.40;;;;;;5151978;27;19930;-76
2021/12/03 07:55:02;;;;;;;;;;;5.00;94.40;;;;;;5135998;27;20404;-75
2021/12/03 07:57:30;;;;;;;;;;;5.10;94.40;;;;;;5123806;27;19933;-75
2021/12/03 07:59:59;;;;;;;;;;;5.20;94.40;;;;;;5153483;27;19930;-75
2021/12/03 08:02:27;;;;;;;;;;;5.30;94.40;;;;;;5125130;27;19923;-75
2021/12/03 08:04:54;;;;;;;;;;;5.30;94.50;;;;;;5155611;27;19930;-76
2021/12/03 08:07:22;;;;;;;;;;;5.40;94.50;;;;;;5143587;27;19927;-76
2021/12/03 08:09:50;;;;;;;;;;;5.40;94.50;;;;;;5121835;27;19930;-75
2021/12/03 08:12:18;;;;;;;;;;;5.50;94.50;;;;;;5137460;27;19923;-75
2021/12/03 08:14:45;;;;;;;;;;;5.60;94.50;;;;;;5156338;27;20418;-76
2021/12/03 08:17:12;;;;;;;;;;;5.70;94.50;;;;;;5136928;27;19930;-77
2021/12/03 08:19:40;;;;;;;;;;;5.70;94.50;;;;;;5137304;27;20299;-75
2021/12/03 08:22:08;;;;;;;;;;;5.80;94.40;;;;;;5125026;27;19923;-76
2021/12/03 08:24:36;;;;;;;;;;;5.80;94.40;;;;;;5136883;27;19923;-76
2021/12/03 08:27:04;;;;;;;;;;;5.80;94.40;;;;;;5146133;27;19934;-75
2021/12/03 08:29:32;;;;;;;;;;;5.90;94.40;;;;;;5133375;27;19924;-76
2021/12/03 08:32:00;;;;;;;;;;;5.90;94.40;;;;;;5134450;27;19934;-76
2021/12/03 08:34:27;;;;;;;;;;;6.00;94.40;;;;;;5116150;27;20399;-77
2021/12/03 08:36:55;;;;;;;;;;;6.00;94.60;;;;;;5135196;27;19931;-77
2021/12/03 08:39:27;;;;;;;;;;;6.10;94.50;;;;;;5135505;27;19938;-77
2021/12/03 08:41:55;;;;;;;;;;;6.20;94.50;;;;;;5115992;27;20380;-77
2021/12/03 08:44:23;;;;;;;;;;;6.20;94.50;;;;;;5135493;27;19923;-76
2021/12/03 08:46:59;;;;;;;;;;;6.20;94.60;;;;;;5135626;27;19924;-76
2021/12/03 08:49:38;;;;;;;;;;;6.20;94.70;;;;;;5134486;27;19923;-77
2021/12/03 08:54:50;;;;;;;;;;;6.30;94.80;;;;;;5134239;27;19939;-76
2021/12/03 08:57:21;;;;;;;;;;;6.40;94.90;;;;;;5134557;27;19938;-75
2021/12/03 08:59:50;;;;;;;;;;;6.50;95.00;;;;;;5134694;27;20400;-77
2021/12/03 09:02:17;;;;;;;;;;;6.60;94.90;;;;;;5135574;27;20399;-77
2021/12/03 09:04:45;;;;;;;;;;;6.70;94.80;;;;;;5155108;27;20066;-75
2021/12/03 09:07:12;;;;;;;;;;;6.70;94.70;;;;;;5154886;27;19989;-76
2021/12/03 09:09:40;;;;;;;;;;;6.70;94.60;;;;;;5136055;27;20404;-76
2021/12/03 09:12:08;;;;;;;;;;;6.70;94.60;;;;;;5118799;27;19923;-76
2021/12/03 09:14:49;;;;;;;;;;;6.70;94.50;;;;;;5153545;27;19927;-77
2021/12/03 09:20:19;;;;;;;;;;;6.80;94.50;;;;;;5138103;27;19930;-76
2021/12/03 09:25:19;;;;;;;;;;;6.80;94.40;;;;;;5114763;27;19927;-76
2021/12/03 09:27:46;;;;;;;;;;;6.80;94.40;;;;;;5098383;27;19924;-77
2021/12/03 09:30:15;;;;;;;;;;;6.80;94.40;;;;;;5132829;27;20396;-76
2021/12/03 09:32:47;;;;;;;;;;;6.80;94.40;;;;;;5133484;27;20388;-76
2021/12/03 09:35:14;;;;;;;;;;;6.80;94.30;;;;;;5133372;27;19931;-76
2021/12/03 09:37:42;;;;;;;;;;;6.80;94.30;;;;;;5114910;27;19935;-76
2021/12/03 09:40:18;;;;;;;;;;;6.90;94.30;;;;;;5133791;27;20245;-77
2021/12/03 09:42:46;;;;;;;;;;;7.00;94.30;;;;;;5132345;27;19927;-77
2021/12/03 09:45:13;;;;;;;;;;;7.00;94.30;;;;;;5133598;27;19931;-78
2021/12/03 09:47:41;;;;;;;;;;;7.00;94.20;;;;;;5097957;27;19930;-76
2021/12/03 09:50:15;;;;;;;;;;;7.10;94.10;;;;;;5132778;27;19924;-78
2021/12/03 09:53:03;;;;;;;;;;;7.20;94.00;;;;;;5114448;27;20008;-78
2021/12/03 09:55:31;;;;;;;;;;;7.20;93.90;;;;;;5114998;27;20388;-76
2021/12/03 10:14:35;;;;;;;;;;;7.30;93.70;;;;;;5052551;28;20301;-77
2021/12/03 10:20:07;;;;;;;;;;;7.40;93.50;;;;;;5069277;28;19925;-76
2021/12/03 10:23:17;;;;;;;;;;;7.50;93.50;;;;;;5035573;28;20410;-76
2021/12/03 10:26:07;;;;;;;;;;;7.60;93.40;;;;;;5069331;28;19935;-77
2021/12/03 10:42:12;;;;;;;;;;;7.70;93.10;;;;;;5148285;27;19942;-77
2021/12/03 10:45:18;;;;;;;;;;;7.70;93.00;;;;;;5136491;27;19923;-76
2021/12/03 11:01:52;;;;;;;;;;;8.00;92.40;;;;;;5135462;27;19927;-78
2021/12/03 11:21:27;;;;;;;;;;;8.20;91.10;;;;;;5060388;28;19925;-78
2021/12/03 11:26:53;;;;;;;;;;;8.20;90.80;;;;;;5051035;28;19929;-78
2021/12/03 11:37:49;;;;;;;;;;;8.30;90.70;;;;;;5058991;28;20275;-77
2021/12/03 12:04:04;;;;;;;;;;;8.30;89.50;;;;;;5145304;27;19927;-78
2021/12/03 12:20:09;;;;;;;;;;;8.30;89.30;;;;;;5139612;27;19923;-77
2021/12/03 12:44:09;;;;;;;;;;;8.20;89.40;;;;;;5125150;27;19930;-78
2021/12/03 14:41:47;;;;;;;;;;;7.60;89.10;;;;;;5135771;28;19930;-78
2021/12/03 14:55:18;;;;;;;;;;;7.40;89.20;;;;;;5146456;27;19946;-78
2021/12/03 15:03:03;;;;;;;;;;;7.30;89.30;;;;;;5144692;27;19930;-78
2021/12/03 15:06:04;;;;;;;;;;;7.30;89.30;;;;;;5150343;27;19923;-78
2021/12/03 15:25:03;;;;;;;;;;;7.30;89.50;;;;;;5149361;27;19923;-74
2021/12/03 15:35:11;;;;;;;;;;;7.10;89.80;;;;;;5146403;27;19931;-73
2021/12/03 15:40:21;;;;;;;;;;;7.00;89.90;;;;;;5136397;27;19924;-73
2021/12/03 15:57:00;;;;;;;;;;;6.90;89.90;;;;;;5136357;27;19923;-73
2021/12/03 16:04:54;;;;;;;;;;;6.80;89.90;;;;;;5136249;27;19927;-73
2021/12/03 16:10:20;;;;;;;;;;;6.80;89.80;;;;;;5116680;27;19931;-72
2021/12/03 16:21:22;;;;;;;;;;;6.80;89.50;;;;;;5155059;27;19934;-72
2021/12/03 16:26:36;;;;;;;;;;;6.80;89.50;;;;;;5144565;27;19923;-72
2021/12/03 16:51:36;;;;;;;;;;;6.70;89.30;;;;;;5129002;27;19923;-72
2021/12/03 16:54:07;;;;;;;;;;;6.70;89.40;;;;;;5142339;27;19923;-73
2021/12/03 16:56:36;;;;;;;;;;;6.70;89.40;;;;;;5136634;27;20295;-73
2021/12/03 16:59:03;;;;;;;;;;;6.60;89.50;;;;;;5141708;27;19930;-73
2021/12/03 17:01:39;;;;;;;;;;;6.60;89.50;;;;;;5136167;27;19923;-72
2021/12/03 17:04:27;;;;;;;;;;;6.60;89.60;;;;;;5135945;27;20302;-72
2021/12/03 17:51:02;;;;;;;;;;;6.50;89.70;;;;;;5140348;27;19924;-81
2021/12/03 17:56:19;;;;;;;;;;;6.60;89.50;;;;;;5139965;27;20380;-81
2021/12/03 17:58:51;;;;;;;;;;;6.60;89.30;;;;;;5122274;27;20276;-80
2021/12/03 18:04:08;;;;;;;;;;;6.60;89.20;;;;;;5143844;27;19923;-80
2021/12/03 18:12:17;;;;;;;;;;;6.50;89.30;;;;;;5150097;27;20372;-81
2021/12/03 18:18:00;;;;;;;;;;;6.30;89.50;;;;;;5140466;27;19934;-82
2021/12/03 18:55:51;;;;;;;;;;;5.60;90.90;;;;;;5145045;27;19946;-82
2021/12/03 18:58:21;;;;;;;;;;;5.50;90.90;;;;;;5129865;27;19931;-81
2021/12/03 19:00:51;;;;;;;;;;;5.50;91.00;;;;;;5149182;27;19931;-81
2021/12/03 19:08:38;;;;;;;;;;;5.50;91.10;;;;;;5147049;27;20384;-81
2021/12/03 19:11:12;;;;;;;;;;;5.50;91.10;;;;;;5143799;27;19928;-79
2021/12/03 19:13:41;;;;;;;;;;;5.50;91.10;;;;;;5146106;27;19934;-82
2021/12/03 19:16:11;;;;;;;;;;;5.40;91.10;;;;;;5156630;27;19930;-84
2021/12/03 19:18:43;;;;;;;;;;;5.40;91.20;;;;;;5135457;27;19923;-79
2021/12/03 19:21:15;;;;;;;;;;;5.30;91.30;;;;;;5139928;27;19928;-80
2021/12/03 19:23:42;;;;;;;;;;;5.30;91.30;;;;;;5126019;27;19930;-81
2021/12/03 19:26:10;;;;;;;;;;;5.30;91.40;;;;;;5128503;27;19927;-79
2021/12/03 19:28:38;;;;;;;;;;;5.30;91.50;;;;;;5146662;27;19924;-80
2021/12/03 19:31:06;;;;;;;;;;;5.30;91.50;;;;;;5126525;27;19930;-80
2021/12/03 19:33:35;;;;;;;;;;;5.30;91.50;;;;;;5149560;27;19923;-80
2021/12/03 19:36:05;;;;;;;;;;;5.20;91.50;;;;;;5141624;27;19931;-80
2021/12/03 19:38:37;;;;;;;;;;;5.20;91.50;;;;;;5148713;27;19923;-80
2021/12/03 19:41:14;;;;;;;;;;;5.20;91.60;;;;;;5124755;27;19923;-80
2021/12/03 19:43:47;;;;;;;;;;;5.20;91.60;;;;;;5138808;27;19931;-80
2021/12/03 19:46:20;;;;;;;;;;;5.10;91.60;;;;;;5152845;27;20315;-80
2021/12/03 19:48:51;;;;;;;;;;;5.20;91.70;;;;;;5154710;27;20046;-81
2021/12/03 19:51:20;;;;;;;;;;;5.20;91.70;;;;;;5147066;27;19934;-79
2021/12/03 19:53:55;;;;;;;;;;;5.20;91.70;;;;;;5168929;27;20674;-79
2021/12/03 19:56:23;;;;;;;;;;;5.10;91.80;;;;;;5152929;27;19930;-80
2021/12/03 19:58:52;;;;;;;;;;;5.10;91.80;;;;;;5147438;27;19923;-80
2021/12/03 20:01:20;;;;;;;;;;;5.20;91.80;;;;;;5155197;27;19946;-80
2021/12/03 20:03:51;;;;;;;;;;;5.20;91.90;;;;;;5156334;27;19938;-80
2021/12/03 20:06:20;;;;;;;;;;;5.20;91.90;;;;;;5146225;27;19958;-80
2021/12/03 20:08:51;;;;;;;;;;;5.10;91.90;;;;;;5135097;27;20304;-80
2021/12/03 20:11:19;;;;;;;;;;;5.10;91.90;;;;;;5145308;27;19926;-80
2021/12/03 20:13:50;;;;;;;;;;;5.10;91.90;;;;;;5135055;27;19939;-80
2021/12/03 20:19:00;;;;;;;;;;;5.10;92.00;;;;;;5142967;27;19923;-79
2021/12/03 20:21:29;;;;;;;;;;;5.10;92.00;;;;;;5127307;27;20324;-78
2021/12/03 20:31:37;;;;;;;;;;;5.10;92.10;;;;;;5134050;27;19938;-81
2021/12/03 20:36:55;;;;;;;;;;;5.10;92.20;;;;;;5135725;27;19927;-80
2021/12/03 20:39:27;;;;;;;;;;;5.10;92.20;;;;;;5122202;27;19924;-81
2021/12/03 20:42:08;;;;;;;;;;;5.00;92.20;;;;;;5117957;27;19931;-80
2021/12/03 21:08:44;;;;;;;;;;;5.00;92.40;;;;;;5157178;27;20264;-80
2021/12/03 21:11:23;;;;;;;;;;;5.10;92.30;;;;;;5149222;27;19927;-80
2021/12/03 21:13:52;;;;;;;;;;;5.10;92.40;;;;;;5137634;27;19923;-80
2021/12/03 21:21:52;;;;;;;;;;;5.00;92.40;;;;;;5116563;27;19931;-80
2021/12/03 21:24:20;;;;;;;;;;;5.00;92.40;;;;;;5138298;27;19930;-78
2021/12/03 21:26:48;;;;;;;;;;;5.00;92.50;;;;;;5140869;27;20407;-80
2021/12/03 21:29:37;;;;;;;;;;;5.00;92.50;;;;;;5144171;27;19934;-79
2021/12/03 21:32:26;;;;;;;;;;;4.90;92.50;;;;;;5141901;27;19930;-79
2021/12/03 21:43:13;;;;;;;;;;;4.90;92.60;;;;;;5155859;27;19923;-80
2021/12/03 21:45:41;;;;;;;;;;;4.90;92.60;;;;;;5147482;27;19927;-78
2021/12/03 21:48:09;;;;;;;;;;;4.90;92.60;;;;;;5115739;27;19930;-79
2021/12/03 21:50:36;;;;;;;;;;;4.80;92.60;;;;;;5129006;27;19946;-79
2021/12/03 21:53:06;;;;;;;;;;;4.80;92.60;;;;;;5137363;27;20524;-80
2021/12/03 21:55:37;;;;;;;;;;;4.80;92.60;;;;;;5123638;27;19923;-78
2021/12/03 21:58:05;;;;;;;;;;;4.70;92.70;;;;;;5154942;27;20353;-79
2021/12/03 22:00:33;;;;;;;;;;;4.70;92.70;;;;;;5150973;27;19923;-79
2021/12/03 22:03:01;;;;;;;;;;;4.70;92.70;;;;;;5144625;27;19946;-79
2021/12/03 22:05:28;;;;;;;;;;;4.60;92.70;;;;;;5122923;27;19931;-79
2021/12/03 22:07:56;;;;;;;;;;;4.50;92.70;;;;;;5133763;27;19931;-80
2021/12/03 22:10:23;;;;;;;;;;;4.50;92.70;;;;;;5125832;27;19923;-79
2021/12/03 22:12:51;;;;;;;;;;;4.40;92.60;;;;;;5120819;27;19923;-81
2021/12/03 22:15:18;;;;;;;;;;;4.30;92.60;;;;;;5133156;27;19927;-80
2021/12/03 22:17:46;;;;;;;;;;;4.20;92.50;;;;;;5149038;27;19923;-82
2021/12/03 22:20:14;;;;;;;;;;;4.10;92.40;;;;;;5146988;27;19930;-79
2021/12/03 22:22:42;;;;;;;;;;;4.00;92.70;;;;;;5142352;27;19927;-79
2021/12/03 22:25:09;;;;;;;;;;;3.90;92.80;;;;;;5135863;27;19945;-79
2021/12/03 22:27:37;;;;;;;;;;;3.80;92.90;;;;;;5116676;27;20331;-79
2021/12/03 22:30:05;;;;;;;;;;;3.80;92.80;;;;;;5144645;27;19934;-80
2021/12/03 22:32:33;;;;;;;;;;;3.70;92.90;;;;;;5151079;27;19923;-80
2021/12/03 22:35:00;;;;;;;;;;;3.60;93.00;;;;;;5139928;27;19930;-79
2021/12/03 22:37:28;;;;;;;;;;;3.60;93.20;;;;;;5120946;27;19927;-81
2021/12/03 22:39:55;;;;;;;;;;;3.60;93.20;;;;;;5120187;27;19923;-80
2021/12/03 22:42:23;;;;;;;;;;;3.50;93.20;;;;;;5110682;27;19923;-80
2021/12/03 22:44:50;;;;;;;;;;;3.50;93.30;;;;;;5131504;28;19923;-80
2021/12/03 22:47:21;;;;;;;;;;;3.40;93.50;;;;;;5150691;27;19927;-79
2021/12/03 22:52:21;;;;;;;;;;;3.40;93.60;;;;;;5145122;27;19923;-81
2021/12/03 22:54:48;;;;;;;;;;;3.40;93.60;;;;;;5138570;27;19931;-79
2021/12/03 22:57:18;;;;;;;;;;;3.30;93.50;;;;;;5150220;27;20363;-79
2021/12/03 22:59:46;;;;;;;;;;;3.30;93.40;;;;;;5135112;28;19930;-79
2021/12/03 23:02:15;;;;;;;;;;;3.20;93.30;;;;;;5134003;28;19923;-79
2021/12/03 23:04:44;;;;;;;;;;;3.10;93.40;;;;;;5137033;27;20288;-80
2021/12/03 23:07:12;;;;;;;;;;;3.10;93.50;;;;;;5133884;28;20105;-79
2021/12/03 23:09:40;;;;;;;;;;;3.10;93.80;;;;;;5133764;28;19931;-78
2021/12/03 23:12:08;;;;;;;;;;;3.10;94.00;;;;;;5134795;28;19930;-80